aviador You're here:

LFLN Decoded Metar

ST.-YAN in FRANCE
Report Time2018-02-22 08:30:00
UTC Time2018-02-22 08:49:46
Flight Rules vfr VFR
Wind340° at 09 kt
W.Decomp.*RWY 33: 8.9 kt HW 1.6 kt RCW
W.Rank340° ranks 15
Current wind is above 340° avg. (5.6)
Visibility9999 m
Phenomena:N/A
Clouds:N/A
Expected CloudBase > 2,000 ft AGL from Temp-Dew spread
CeilingNone
Temp00°C (ISA -13)
Dew Point-5°C (69% RH)
AAT-5.9°C
QNH1011 hPa
Density Alt-705 ft
Elevation801 ft
Report Wrong Elevation
Raw Report
METAR LFLN 220830Z AUTO 34009KT 290V350 CAVOK M00/M05 Q1011 BECMG 04015G25KT=

Extra information for LFLN:More info

Metar Taf Metar & Taf Last 4 Metars F.Rules Stats Wind Profile Meteogram Temp Stats Airport Information Weather charts Add Link Nearby VenuesMetar ALERT Operation Metar Decoded Social comments